Time;durP1;ratioP1;P1;durP2;ratioP2;P2;SDS_P1;SDS_P2;PMS_P1;PMS_P2;Temp;Humidity;BMP_temperature;BMP_pressure;BME280_temperature;BME280_humidity;BME280_pressure;Samples;Min_cycle;Max_cycle;Signal;HPM_P1;HPM_P2
2022/01/13 00:01:57;;;;;;;33.72;12.98;;;;;;;-1.97;57.28;101926.78;4462770;32;32902;-85
2022/01/13 00:04:26;;;;;;;27.77;12.10;;;;;;;-2.04;57.81;101925.66;4461660;32;33759;-85
2022/01/13 00:06:53;;;;;;;25.80;11.88;;;;;;;-1.91;57.32;101927.03;4449818;32;33625;-85
2022/01/13 00:09:21;;;;;;;28.23;12.40;;;;;;;-1.70;56.59;101916.66;4468754;32;33339;-85
2022/01/13 00:11:50;;;;;;;26.62;11.55;;;;;;;-1.98;57.03;101931.09;4451196;32;33541;-85
2022/01/13 00:24:45;;;;;;;28.10;12.32;;;;;;;-2.47;58.77;101938.47;4469076;32;34546;-84
2022/01/13 00:27:14;;;;;;;22.77;10.18;;;;;;;-2.27;58.25;101916.94;4456027;32;32818;-84
2022/01/13 00:29:44;;;;;;;29.23;15.27;;;;;;;-2.18;58.13;101925.09;4469544;32;33520;-84
2022/01/13 00:32:15;;;;;;;26.15;10.98;;;;;;;-2.02;57.60;101921.41;4451138;32;33834;-84
2022/01/13 00:34:43;;;;;;;25.35;11.32;;;;;;;-1.96;57.43;101913.00;4463028;32;34549;-84
2022/01/13 00:37:11;;;;;;;28.75;12.05;;;;;;;-1.81;57.28;101906.72;4460419;32;33407;-84
2022/01/13 00:39:39;;;;;;;28.52;12.00;;;;;;;-1.89;57.85;101908.16;4461527;32;34605;-84
2022/01/13 00:42:08;;;;;;;32.08;12.90;;;;;;;-1.66;57.67;101921.13;4455518;32;33250;-84
2022/01/13 00:44:37;;;;;;;28.92;13.07;;;;;;;-1.69;57.89;101918.44;4463768;32;32145;-84
2022/01/13 00:47:09;;;;;;;32.20;12.18;;;;;;;-1.79;58.07;101911.13;4448366;32;32661;-84
2022/01/13 00:49:37;;;;;;;27.10;11.57;;;;;;;-1.73;57.80;101921.72;4464424;32;34117;-84
2022/01/13 00:52:05;;;;;;;29.08;11.73;;;;;;;-1.60;57.40;101918.78;4447129;32;33452;-84
2022/01/13 00:54:34;;;;;;;32.05;11.90;;;;;;;-1.60;57.57;101929.16;4467911;32;33240;-84
2022/01/13 00:57:02;;;;;;;24.73;11.43;;;;;;;-1.58;57.58;101928.37;4462374;32;33163;-84
2022/01/13 00:59:30;;;;;;;24.65;11.23;;;;;;;-1.64;57.64;101930.72;4462354;32;33167;-84
2022/01/13 01:01:57;;;;;;;24.65;10.98;;;;;;;-1.61;57.95;101942.94;4455166;32;35157;-84
2022/01/13 01:04:26;;;;;;;29.42;13.30;;;;;;;-1.53;57.74;101940.62;4460940;32;33352;-84
2022/01/13 01:06:54;;;;;;;28.45;12.60;;;;;;;-1.67;58.45;101943.56;4454988;32;32199;-84
2022/01/13 01:09:48;;;;;;;27.40;11.73;;;;;;;-1.31;57.55;101944.12;4461110;32;33476;-84
2022/01/13 01:12:18;;;;;;;28.87;12.23;;;;;;;-1.25;57.21;101940.00;4470580;32;34133;-84
2022/01/13 01:14:55;;;;;;;28.17;11.45;;;;;;;-1.22;57.39;101943.59;4448525;32;32711;-84
2022/01/13 01:17:23;;;;;;;25.17;12.10;;;;;;;-1.22;57.22;101937.53;4468226;32;33017;-84
2022/01/13 01:19:51;;;;;;;30.12;12.43;;;;;;;-1.25;57.14;101938.28;4463545;32;33361;-84
2022/01/13 01:27:52;;;;;;;26.50;13.00;;;;;;;-1.00;56.36;101954.78;4442427;32;34279;-84
2022/01/13 01:32:51;;;;;;;27.40;12.25;;;;;;;-1.30;57.03;101935.53;4462432;32;33987;-85
2022/01/13 01:35:19;;;;;;;30.85;12.98;;;;;;;-1.07;56.38;101948.50;4453504;32;33595;-84
2022/01/13 01:37:47;;;;;;;29.12;11.55;;;;;;;-1.11;56.37;101944.00;4464294;32;33417;-87
2022/01/13 01:40:15;;;;;;;33.80;15.45;;;;;;;-1.19;56.35;101945.41;4460424;32;34326;-86
2022/01/13 01:42:45;;;;;;;29.58;12.23;;;;;;;-1.33;56.75;101932.84;4453673;32;34377;-86
2022/01/13 01:45:15;;;;;;;28.27;13.15;;;;;;;-1.37;57.03;101946.50;4461116;32;33453;-86
2022/01/13 01:47:44;;;;;;;33.25;12.45;;;;;;;-1.23;56.79;101957.41;4467119;32;33809;-85
2022/01/13 01:50:18;;;;;;;26.20;12.30;;;;;;;-1.36;56.75;101949.97;4442065;32;33136;-86
2022/01/13 01:52:52;;;;;;;31.02;13.35;;;;;;;-1.51;56.76;101937.31;4460164;32;33705;-86
2022/01/13 01:55:20;;;;;;;34.28;13.43;;;;;;;-1.27;56.25;101942.56;4464892;32;34466;-84
2022/01/13 01:57:49;;;;;;;26.75;12.70;;;;;;;-1.67;57.32;101946.16;4460938;32;34202;-84
2022/01/13 02:00:20;;;;;;;25.80;11.82;;;;;;;-1.71;57.66;101945.94;4462807;32;33497;-84
2022/01/13 02:02:49;;;;;;;24.65;11.82;;;;;;;-1.54;56.67;101960.47;4473842;32;34764;-84
2022/01/13 02:05:17;;;;;;;31.65;12.23;;;;;;;-1.67;56.85;101958.22;4453797;32;33255;-85
2022/01/13 02:07:44;;;;;;;32.70;13.50;;;;;;;-1.69;56.83;101949.50;4466413;32;33328;-85
2022/01/13 02:10:14;;;;;;;32.78;12.63;;;;;;;-1.68;56.38;101951.28;4453934;32;34377;-86
2022/01/13 02:12:46;;;;;;;27.35;11.52;;;;;;;-1.80;57.12;101951.69;4447266;32;32479;-86
2022/01/13 02:15:30;;;;;;;26.48;10.52;;;;;;;-2.06;58.11;101954.06;4460629;32;33774;-85
2022/01/13 02:17:59;;;;;;;32.10;12.63;;;;;;;-2.13;58.13;101949.44;4437793;32;32400;-85
2022/01/13 02:21:04;;;;;;;23.90;11.82;;;;;;;-1.74;56.96;101940.66;4467181;32;34818;-85
2022/01/13 02:23:35;;;;;;;25.73;11.80;;;;;;;-1.97;57.52;101935.44;4386107;32;33426;-85
2022/01/13 02:26:09;;;;;;;31.40;12.88;;;;;;;-2.10;58.11;101948.69;4438385;32;33173;-84
2022/01/13 02:28:38;;;;;;;32.83;11.50;;;;;;;-2.22;58.02;101949.06;4461061;32;33445;-85
2022/01/13 02:31:07;;;;;;;24.92;10.80;;;;;;;-1.95;57.04;101941.53;4437495;32;34852;-85
2022/01/13 02:33:35;;;;;;;27.02;10.68;;;;;;;-1.96;56.65;101946.66;4467910;32;34318;-84
2022/01/13 02:36:04;;;;;;;28.90;11.45;;;;;;;-1.91;56.23;101956.38;4457390;32;33090;-85
2022/01/13 02:38:32;;;;;;;24.12;11.85;;;;;;;-2.10;56.83;101949.56;4469861;32;33803;-85
2022/01/13 02:41:02;;;;;;;27.08;12.52;;;;;;;-2.15;56.98;101953.66;4455701;32;33879;-86
2022/01/13 02:43:31;;;;;;;30.35;12.52;;;;;;;-2.06;56.56;101958.34;4456692;32;33344;-87
2022/01/13 02:48:35;;;;;;;26.27;11.18;;;;;;;-2.22;56.62;101948.19;4457582;32;32818;-86
2022/01/13 02:51:03;;;;;;;30.23;11.85;;;;;;;-1.75;55.41;101928.56;4462332;32;32823;-85
2022/01/13 02:53:31;;;;;;;30.70;12.23;;;;;;;-1.92;55.75;101936.50;4469418;32;34794;-84
2022/01/13 02:56:04;;;;;;;26.15;10.93;;;;;;;-2.11;56.50;101933.97;4478364;32;34614;-84
2022/01/13 02:58:34;;;;;;;25.40;11.50;;;;;;;-2.32;57.36;101934.84;4465155;32;33847;-84
2022/01/13 03:01:05;;;;;;;32.80;12.10;;;;;;;-2.70;58.77;101932.31;4463909;32;33835;-84
2022/01/13 03:03:35;;;;;;;29.85;13.07;;;;;;;-2.67;58.58;101932.41;4448128;32;33721;-84
2022/01/13 03:06:11;;;;;;;26.37;10.90;;;;;;;-2.32;57.63;101929.66;4456728;32;34544;-84
2022/01/13 03:08:42;;;;;;;36.70;14.45;;;;;;;-2.48;58.15;101936.69;4450866;32;32216;-84
2022/01/13 03:11:11;;;;;;;32.95;13.18;;;;;;;-2.12;56.51;101942.56;4465054;32;33706;-84
2022/01/13 03:13:39;;;;;;;28.98;12.55;;;;;;;-2.52;58.17;101950.31;4462278;32;33307;-85
2022/01/13 03:16:10;;;;;;;26.23;12.00;;;;;;;-2.73;58.95;101956.31;4448282;32;33787;-85
2022/01/13 03:18:39;;;;;;;32.03;12.07;;;;;;;-2.83;59.45;101955.00;4461269;32;32838;-85
2022/01/13 03:21:07;;;;;;;26.67;13.13;;;;;;;-2.73;59.39;101963.19;4443793;32;33972;-84
2022/01/13 03:23:36;;;;;;;29.15;12.85;;;;;;;-2.55;58.65;101966.59;4467565;32;34077;-85
2022/01/13 03:26:05;;;;;;;26.92;13.27;;;;;;;-2.10;56.98;101969.37;4455639;32;32935;-85
2022/01/13 03:28:41;;;;;;;26.48;12.27;;;;;;;-2.06;56.70;101971.28;4463387;32;33488;-85
2022/01/13 03:31:09;;;;;;;29.70;11.25;;;;;;;-1.92;56.49;101979.63;4464505;32;32968;-85
2022/01/13 03:33:37;;;;;;;28.15;11.60;;;;;;;-2.16;57.34;101977.78;4456492;32;33481;-85
2022/01/13 03:36:05;;;;;;;28.23;13.90;;;;;;;-2.58;58.94;101982.84;4455398;32;32613;-85
2022/01/13 03:38:33;;;;;;;26.55;12.15;;;;;;;-2.62;59.48;101987.81;4452333;32;32322;-86
2022/01/13 03:41:01;;;;;;;34.10;13.82;;;;;;;-2.70;60.28;101982.31;4444278;32;32787;-85
2022/01/13 03:43:28;;;;;;;40.78;13.80;;;;;;;-2.60;59.89;101979.31;4462944;32;34181;-85
2022/01/13 03:45:56;;;;;;;28.40;13.88;;;;;;;-2.65;60.10;101982.53;4450589;32;34277;-85
2022/01/13 03:48:24;;;;;;;37.15;15.25;;;;;;;-2.41;59.54;101970.66;4450603;32;31881;-85
2022/01/13 03:50:52;;;;;;;29.90;13.10;;;;;;;-2.29;59.29;101969.41;4461908;32;34047;-86
2022/01/13 03:53:29;;;;;;;30.55;12.27;;;;;;;-2.13;58.83;101954.63;4478027;32;34773;-86
2022/01/13 03:56:34;;;;;;;35.05;13.48;;;;;;;-2.35;59.23;101965.75;4475913;32;34199;-86
2022/01/13 03:59:15;;;;;;;38.83;12.98;;;;;;;-2.07;58.58;101949.69;4456739;32;33041;-85
2022/01/13 04:02:04;;;;;;;30.12;12.95;;;;;;;-1.96;58.29;101963.09;4476705;32;33156;-85
2022/01/13 04:04:45;;;;;;;35.17;13.60;;;;;;;-2.01;58.25;101966.31;4463841;32;33609;-85
2022/01/13 04:07:23;;;;;;;33.33;13.25;;;;;;;-2.09;58.33;101963.38;4454452;32;32507;-85
2022/01/13 04:09:50;;;;;;;30.08;14.18;;;;;;;-2.24;58.95;101958.44;4449842;32;33772;-86
2022/01/13 04:12:20;;;;;;;32.28;14.18;;;;;;;-1.97;58.04;101950.09;4477913;32;34642;-86
2022/01/13 04:15:00;;;;;;;28.20;11.60;;;;;;;-2.30;58.71;101962.47;4452270;32;33219;-85
2022/01/13 04:17:29;;;;;;;28.20;13.20;;;;;;;-1.99;57.97;101965.56;4443687;32;32352;-86
2022/01/13 04:19:57;;;;;;;29.42;12.73;;;;;;;-1.99;57.75;101955.22;4449033;32;33342;-86
2022/01/13 04:22:25;;;;;;;25.83;12.95;;;;;;;-1.77;57.23;101946.59;4468949;32;35562;-87
2022/01/13 04:24:53;;;;;;;29.83;12.25;;;;;;;-1.99;57.77;101934.50;4475909;32;33975;-87
2022/01/13 04:27:29;;;;;;;28.60;13.23;;;;;;;-1.90;57.29;101921.94;4463302;32;32320;-86
2022/01/13 04:32:43;;;;;;;34.50;11.88;;;;;;;-1.95;57.19;101912.19;4478011;32;34361;-86
2022/01/13 04:35:11;;;;;;;33.78;12.52;;;;;;;-1.87;57.04;101911.69;4469714;32;33625;-87
2022/01/13 04:37:39;;;;;;;32.55;13.95;;;;;;;-2.03;57.48;101917.06;4468102;32;33611;-87
2022/01/13 04:40:09;;;;;;;37.13;14.35;;;;;;;-2.29;58.15;101912.50;4463652;32;33497;-85
2022/01/13 04:42:41;;;;;;;29.52;12.27;;;;;;;-1.97;57.26;101909.53;4459973;32;32788;-85
2022/01/13 04:45:10;;;;;;;31.48;13.65;;;;;;;-1.89;56.88;101908.16;4458375;32;34121;-85
2022/01/13 04:47:38;;;;;;;31.50;15.02;;;;;;;-2.10;57.59;101912.44;4447923;32;34685;-85
2022/01/13 04:50:05;;;;;;;28.95;13.30;;;;;;;-2.28;57.74;101909.97;4461471;32;33039;-85
2022/01/13 04:52:33;;;;;;;26.35;12.18;;;;;;;-2.14;57.37;101913.12;4446110;32;32992;-85
2022/01/13 04:55:08;;;;;;;31.52;13.25;;;;;;;-2.29;57.61;101921.13;4434905;32;33781;-85
2022/01/13 04:57:36;;;;;;;28.05;12.25;;;;;;;-2.21;57.40;101931.81;4448607;32;32442;-85
2022/01/13 05:00:07;;;;;;;31.90;13.18;;;;;;;-2.24;57.10;101927.38;4466016;32;32519;-85
2022/01/13 05:02:36;;;;;;;33.00;12.57;;;;;;;-2.41;57.90;101929.28;4460347;32;33078;-85
2022/01/13 05:05:04;;;;;;;32.72;12.88;;;;;;;-2.61;58.44;101931.00;4452729;32;34103;-85
2022/01/13 05:07:33;;;;;;;36.83;12.68;;;;;;;-2.35;57.70;101929.53;4456951;32;33777;-85
2022/01/13 05:10:02;;;;;;;31.20;13.62;;;;;;;-2.34;57.22;101933.00;4459893;32;33797;-84
2022/01/13 05:12:42;;;;;;;30.20;11.07;;;;;;;-2.30;56.78;101944.38;4460913;32;33927;-84
2022/01/13 05:15:16;;;;;;;32.50;13.38;;;;;;;-2.41;56.70;101944.81;4448496;32;33626;-83
2022/01/13 05:20:21;;;;;;;26.05;13.15;;;;;;;-2.62;57.61;101956.78;4463342;32;32699;-84
2022/01/13 05:22:49;;;;;;;34.72;13.98;;;;;;;-2.44;56.72;101964.47;4449028;32;33672;-84
2022/01/13 05:25:18;;;;;;;32.30;12.63;;;;;;;-2.64;57.63;101971.34;4458360;32;33879;-84
2022/01/13 05:27:46;;;;;;;28.02;12.02;;;;;;;-2.76;57.94;101973.38;4449828;32;33662;-84
2022/01/13 05:30:16;;;;;;;32.90;13.62;;;;;;;-2.58;57.29;101974.22;4460145;32;33158;-83
2022/01/13 05:32:46;;;;;;;31.08;13.93;;;;;;;-2.49;56.98;101972.03;4450578;32;35535;-83
2022/01/13 05:35:17;;;;;;;33.97;13.55;;;;;;;-2.58;57.29;101981.97;4451919;32;33298;-84
2022/01/13 05:37:45;;;;;;;34.83;14.75;;;;;;;-2.67;57.51;101981.56;4461246;32;33106;-85
2022/01/13 05:40:13;;;;;;;31.87;13.30;;;;;;;-2.60;57.49;101988.78;4448310;32;33581;-85
2022/01/13 05:42:41;;;;;;;38.90;14.25;;;;;;;-2.83;58.75;101986.03;4462393;32;33470;-85
2022/01/13 05:45:15;;;;;;;40.10;14.85;;;;;;;-2.84;59.45;101984.28;4448647;32;31811;-84
2022/01/13 05:47:45;;;;;;;34.55;14.30;;;;;;;-2.64;59.09;101977.41;4448380;32;33806;-85
2022/01/13 05:50:15;;;;;;;44.78;15.13;;;;;;;-2.65;58.90;101974.78;4437488;32;32400;-85
2022/01/13 05:52:43;;;;;;;35.97;14.43;;;;;;;-2.60;59.12;101965.50;4453448;32;31662;-85
2022/01/13 05:55:13;;;;;;;34.33;14.80;;;;;;;-2.58;59.36;101969.03;4465247;32;34821;-85
2022/01/13 05:57:41;;;;;;;42.75;15.38;;;;;;;-2.59;59.45;101975.91;4440076;32;33139;-84
2022/01/13 06:00:11;;;;;;;41.72;14.35;;;;;;;-2.34;58.75;101966.63;4463442;32;33402;-85
2022/01/13 06:02:39;;;;;;;33.65;14.87;;;;;;;-2.39;58.90;101970.72;4458698;32;35387;-85
2022/01/13 06:05:08;;;;;;;28.70;14.63;;;;;;;-2.40;58.86;101961.19;4449164;32;34823;-85
2022/01/13 06:07:35;;;;;;;37.03;15.20;;;;;;;-2.28;58.46;101968.59;4462124;32;33589;-85
2022/01/13 06:10:05;;;;;;;36.17;13.77;;;;;;;-2.47;58.87;101965.25;4461174;32;32915;-86
2022/01/13 06:12:36;;;;;;;43.95;16.50;;;;;;;-2.19;58.38;101966.41;4451671;32;33194;-85
2022/01/13 06:15:08;;;;;;;38.25;16.45;;;;;;;-2.08;57.95;101958.28;4463028;32;34038;-84
2022/01/13 06:17:37;;;;;;;29.17;14.20;;;;;;;-2.14;58.15;101962.31;4447938;32;33040;-84
2022/01/13 06:20:07;;;;;;;35.80;14.50;;;;;;;-2.72;59.82;101964.94;4453953;32;33614;-84
2022/01/13 06:22:34;;;;;;;36.78;13.45;;;;;;;-2.44;59.98;101955.00;4450199;32;33638;-83
2022/01/13 06:25:04;;;;;;;31.10;13.82;;;;;;;-2.33;60.46;101947.69;4451086;32;34518;-83
2022/01/13 06:27:32;;;;;;;34.83;13.55;;;;;;;-2.57;62.15;101942.34;4463732;32;33480;-84
2022/01/13 06:30:10;;;;;;;43.80;14.15;;;;;;;-2.39;62.73;101942.28;4462376;32;32732;-85
2022/01/13 06:32:38;;;;;;;42.17;13.90;;;;;;;-2.13;62.10;101941.69;4454753;32;32460;-86
2022/01/13 06:35:07;;;;;;;36.65;14.73;;;;;;;-2.08;62.39;101947.94;4463999;32;33896;-87
2022/01/13 06:37:35;;;;;;;38.53;14.73;;;;;;;-1.85;61.68;101942.84;4438938;32;33142;-85
2022/01/13 06:40:04;;;;;;;47.72;15.32;;;;;;;-1.91;61.72;101948.63;4461196;32;33274;-86
2022/01/13 06:42:32;;;;;;;43.03;15.57;;;;;;;-1.82;61.56;101948.13;4460365;32;33355;-84
2022/01/13 06:45:00;;;;;;;37.47;13.65;;;;;;;-1.96;62.72;101944.97;4445467;32;33529;-85
2022/01/13 06:47:28;;;;;;;42.00;14.98;;;;;;;-1.68;62.09;101953.84;4446329;32;32743;-85
2022/01/13 06:49:55;;;;;;;28.87;13.62;;;;;;;-1.63;62.31;101939.38;4447554;32;32710;-86
2022/01/13 06:52:23;;;;;;;39.22;15.60;;;;;;;-1.85;62.98;101942.84;4459292;32;32750;-87
2022/01/13 06:54:52;;;;;;;38.50;13.10;;;;;;;-1.84;63.48;101949.78;4429508;32;33691;-87
2022/01/13 06:57:19;;;;;;;38.10;15.55;;;;;;;-1.58;62.59;101948.22;4457942;32;36008;-87
2022/01/13 06:59:47;;;;;;;47.55;16.05;;;;;;;-1.50;62.71;101943.34;4456639;32;33189;-88
2022/01/13 07:02:16;;;;;;;34.22;13.88;;;;;;;-1.26;62.27;101946.91;4459233;32;32483;-87
2022/01/13 07:04:44;;;;;;;28.90;13.20;;;;;;;-0.99;61.54;101952.28;4459460;32;32294;-87
2022/01/13 07:07:11;;;;;;;33.50;14.65;;;;;;;-1.15;61.87;101942.13;4458851;32;32437;-87
2022/01/13 07:09:40;;;;;;;38.72;14.73;;;;;;;-1.09;61.93;101932.00;4459306;32;34282;-87
2022/01/13 07:12:09;;;;;;;43.65;15.40;;;;;;;-0.97;61.70;101945.41;4447926;32;32853;-87
2022/01/13 07:14:36;;;;;;;40.22;16.23;;;;;;;-1.14;61.71;101941.28;4455406;32;34401;-86
2022/01/13 07:17:05;;;;;;;36.90;15.38;;;;;;;-1.06;61.79;101942.47;4443620;32;34277;-87
2022/01/13 07:19:32;;;;;;;39.85;17.75;;;;;;;-0.81;61.61;101947.78;4458412;32;32419;-87
2022/01/13 07:22:00;;;;;;;35.70;16.65;;;;;;;-0.80;61.56;101949.53;4447015;32;34236;-87
2022/01/13 07:24:28;;;;;;;44.25;16.62;;;;;;;-0.72;61.84;101961.87;4423537;32;31484;-87
2022/01/13 07:26:55;;;;;;;34.20;15.43;;;;;;;-0.65;61.85;101964.75;4459731;32;33418;-86
2022/01/13 07:29:25;;;;;;;45.00;17.27;;;;;;;-0.80;62.29;101959.91;4460655;32;33284;-87
2022/01/13 07:31:53;;;;;;;36.35;15.23;;;;;;;-0.98;64.47;101964.41;4455385;32;33418;-87
2022/01/13 07:34:21;;;;;;;37.53;14.45;;;;;;;-0.68;64.04;101964.66;4435201;32;34370;-87
2022/01/13 07:36:49;;;;;;;34.05;14.63;;;;;;;-0.56;63.93;101969.41;4451051;32;32724;-87
2022/01/13 07:39:17;;;;;;;32.03;14.82;;;;;;;-0.48;64.04;101978.34;4459126;32;32606;-87
2022/01/13 07:41:45;;;;;;;31.52;15.30;;;;;;;-0.20;63.89;101966.34;4452051;32;33080;-87
2022/01/13 07:44:17;;;;;;;40.38;16.15;;;;;;;-0.29;64.31;101970.38;4457882;31;34484;-87
2022/01/13 07:46:45;;;;;;;45.28;16.85;;;;;;;0.06;64.14;101970.72;4456533;31;33502;-90
2022/01/13 07:49:13;;;;;;;38.38;14.73;;;;;;;0.08;63.82;101976.84;4443460;31;32606;-90
2022/01/13 07:51:41;;;;;;;37.35;16.10;;;;;;;0.16;64.01;101982.31;4464083;32;33101;-89
2022/01/13 07:54:09;;;;;;;42.75;15.93;;;;;;;0.23;64.07;101979.06;4448691;31;35270;-91
2022/01/13 07:56:38;;;;;;;35.80;15.82;;;;;;;0.10;64.59;101985.59;4460718;32;32701;-89
2022/01/13 07:59:06;;;;;;;34.13;13.85;;;;;;;0.53;63.50;101981.78;4442031;32;33725;-90
2022/01/13 08:01:37;;;;;;;37.03;14.73;;;;;;;0.74;62.84;101977.25;4470207;31;33932;-90
2022/01/13 08:04:07;;;;;;;41.17;14.65;;;;;;;0.30;64.37;101978.44;4456700;31;31894;-90
2022/01/13 08:06:35;;;;;;;37.22;15.65;;;;;;;0.63;63.53;101970.84;4452747;32;32950;-90
2022/01/13 08:09:03;;;;;;;39.17;16.42;;;;;;;0.76;63.37;101975.59;4437170;31;31660;-90
2022/01/13 08:11:32;;;;;;;33.53;15.05;;;;;;;0.92;62.64;101970.88;4442687;31;33352;-90
2022/01/13 08:14:00;;;;;;;33.58;14.35;;;;;;;0.83;63.28;101970.59;4442404;31;33031;-90
2022/01/13 08:16:34;;;;;;;34.85;15.35;;;;;;;1.07;62.79;101973.03;4438477;31;32704;-90
2022/01/13 08:21:52;;;;;;;41.28;15.57;;;;;;;0.98;63.24;101981.44;4457750;31;33817;-90
2022/01/13 08:24:22;;;;;;;42.50;15.35;;;;;;;1.32;62.56;101979.84;4466448;31;33124;-90
2022/01/13 08:26:50;;;;;;;38.20;14.57;;;;;;;1.39;62.59;101980.06;4452272;31;33222;-90
2022/01/13 08:29:18;;;;;;;31.55;14.77;;;;;;;1.38;62.66;101983.53;4453938;32;32704;-90
2022/01/13 08:31:46;;;;;;;39.00;16.70;;;;;;;1.31;63.57;101989.37;4440736;32;34639;-90
2022/01/13 08:34:16;;;;;;;32.13;15.15;;;;;;;1.64;62.79;101986.84;4437253;32;33315;-89
2022/01/13 08:36:44;;;;;;;38.42;16.50;;;;;;;1.65;62.76;101986.00;4441303;32;33030;-90
2022/01/13 08:39:13;;;;;;;36.17;15.50;;;;;;;1.93;62.38;101989.34;4451760;32;32672;-90
2022/01/13 08:41:45;;;;;;;37.63;16.23;;;;;;;2.11;61.88;101976.81;4457210;32;33253;-90
2022/01/13 08:44:14;;;;;;;41.50;15.57;;;;;;;2.44;61.08;101970.69;4440755;32;32966;-90
2022/01/13 08:46:42;;;;;;;41.10;14.95;;;;;;;2.38;60.96;101957.50;4455759;32;32691;-90
2022/01/13 08:49:10;;;;;;;36.75;15.15;;;;;;;2.10;62.16;101967.22;4451423;32;32616;-90
2022/01/13 08:51:46;;;;;;;35.10;16.45;;;;;;;2.01;62.68;101967.00;4454726;32;33186;-90
2022/01/13 08:54:14;;;;;;;40.50;16.35;;;;;;;2.67;61.03;101959.06;4451071;32;33905;-90
2022/01/13 08:56:42;;;;;;;35.17;14.82;;;;;;;2.30;61.94;101954.69;4455493;32;31840;-90
2022/01/13 08:59:10;;;;;;;35.10;14.43;;;;;;;2.02;63.49;101963.53;4463148;32;33244;-90
2022/01/13 09:01:37;;;;;;;42.62;16.17;;;;;;;2.52;61.98;101956.09;4450764;32;32849;-90
2022/01/13 09:04:05;;;;;;;31.52;15.60;;;;;;;2.75;61.55;101952.31;4456602;32;33018;-90
2022/01/13 09:06:34;;;;;;;36.80;16.40;;;;;;;2.65;61.70;101950.31;4463915;32;32803;-90
2022/01/13 09:09:01;;;;;;;30.45;14.77;;;;;;;2.76;61.75;101961.87;4461169;32;33068;-90
2022/01/13 09:11:29;;;;;;;36.65;14.48;;;;;;;3.26;60.07;101954.25;4451085;32;33589;-90
2022/01/13 09:13:58;;;;;;;32.75;13.93;;;;;;;2.95;61.34;101946.62;4443033;32;32681;-90
2022/01/13 09:16:28;;;;;;;38.35;15.43;;;;;;;3.31;60.07;101952.59;4455697;32;32450;-89
2022/01/13 09:21:27;;;;;;;34.42;14.05;;;;;;;3.47;59.95;101952.94;4470011;32;34303;-90
2022/01/13 09:23:55;;;;;;;31.85;14.48;;;;;;;3.61;59.43;101951.47;4454528;32;32805;-89
2022/01/13 09:26:23;;;;;;;36.95;13.57;;;;;;;3.56;59.58;101948.78;4464416;32;33051;-90
2022/01/13 09:28:52;;;;;;;27.77;13.40;;;;;;;3.48;60.09;101950.34;4451170;32;32629;-90
2022/01/13 09:31:20;;;;;;;31.23;13.60;;;;;;;3.78;59.29;101950.03;4449255;32;33388;-90
2022/01/13 09:33:48;;;;;;;29.98;13.68;;;;;;;3.55;59.71;101959.19;4463030;32;33006;-90
2022/01/13 09:36:16;;;;;;;28.30;13.60;;;;;;;3.56;59.52;101967.06;4464207;32;32457;-89
2022/01/13 09:38:49;;;;;;;31.85;11.70;;;;;;;3.50;59.98;101968.66;4444155;32;32106;-90
2022/01/13 09:41:18;;;;;;;31.42;13.82;;;;;;;3.78;59.34;101962.22;4453415;32;33079;-89
2022/01/13 09:43:52;;;;;;;26.05;12.98;;;;;;;3.93;59.16;101964.25;4435674;32;34227;-88
2022/01/13 09:46:20;;;;;;;26.95;12.07;;;;;;;3.79;59.72;101964.88;4466052;32;33480;-88
2022/01/13 09:48:49;;;;;;;34.85;13.40;;;;;;;3.93;59.29;101957.28;4453205;32;32548;-88
2022/01/13 09:51:26;;;;;;;29.30;12.98;;;;;;;3.82;59.38;101954.47;4453854;32;33683;-88
2022/01/13 09:53:53;;;;;;;30.23;13.32;;;;;;;3.94;59.22;101945.09;4449475;32;32620;-88
2022/01/13 09:56:21;;;;;;;25.95;12.23;;;;;;;3.86;59.73;101937.12;4459542;32;32327;-88
2022/01/13 09:58:49;;;;;;;29.73;13.82;;;;;;;4.48;58.06;101933.78;4462349;32;32495;-88
2022/01/13 10:01:17;;;;;;;29.17;13.70;;;;;;;4.90;56.77;101923.06;4448595;32;33998;-87
2022/01/13 10:03:45;;;;;;;29.35;11.68;;;;;;;4.81;56.57;101913.34;4451021;32;33439;-88
2022/01/13 10:06:14;;;;;;;27.80;11.73;;;;;;;4.99;56.19;101917.97;4454550;32;34132;-88
2022/01/13 10:08:54;;;;;;;28.65;12.05;;;;;;;5.24;55.38;101920.88;4455839;32;33028;-88
2022/01/13 10:11:23;;;;;;;21.10;10.43;;;;;;;5.21;56.04;101924.31;4467137;32;33366;-88
2022/01/13 10:14:17;;;;;;;20.42;10.43;;;;;;;4.97;57.09;101927.50;4448073;32;33108;-88
2022/01/13 10:16:48;;;;;;;25.48;10.27;;;;;;;4.91;56.47;101930.06;4463681;32;32312;-88
2022/01/13 10:19:31;;;;;;;28.10;12.50;;;;;;;5.39;55.16;101927.16;4449978;32;32146;-87
2022/01/13 10:22:06;;;;;;;24.60;10.65;;;;;;;5.39;54.97;101914.06;4460138;32;33772;-88
2022/01/13 10:24:35;;;;;;;24.67;12.00;;;;;;;5.64;54.22;101909.97;4441590;32;33217;-88
2022/01/13 10:27:07;;;;;;;26.95;10.77;;;;;;;5.46;54.79;101908.88;4460662;32;34052;-87
2022/01/13 10:29:46;;;;;;;27.87;11.50;;;;;;;5.29;55.42;101911.34;4448689;32;32708;-87
2022/01/13 10:32:19;;;;;;;27.08;11.18;;;;;;;5.45;54.74;101913.25;4462758;32;33558;-88
2022/01/13 10:34:49;;;;;;;30.25;12.02;;;;;;;5.43;54.74;101914.13;4474536;32;34328;-87
2022/01/13 10:37:27;;;;;;;20.55;10.85;;;;;;;5.12;55.75;101919.84;4466063;32;33819;-88
2022/01/13 10:39:58;;;;;;;22.37;10.23;;;;;;;5.51;54.89;101909.84;4462410;32;33371;-87
2022/01/13 10:45:18;;;;;;;23.98;10.43;;;;;;;5.23;55.39;101891.19;4460102;32;34289;-87
2022/01/13 10:47:58;;;;;;;22.17;9.98;;;;;;;4.99;56.31;101890.91;4451196;32;35155;-88
2022/01/13 10:50:28;;;;;;;27.90;11.55;;;;;;;4.87;56.97;101887.25;4447821;32;32549;-88
2022/01/13 10:53:02;;;;;;;22.55;11.48;;;;;;;5.47;55.03;101882.72;4442168;32;35289;-88
2022/01/13 10:55:34;;;;;;;24.27;11.95;;;;;;;5.28;55.52;101879.03;4458768;32;33249;-88
2022/01/13 10:58:13;;;;;;;24.63;11.10;;;;;;;5.45;54.89;101883.56;4448724;32;33100;-88
2022/01/13 11:00:46;;;;;;;22.25;10.65;;;;;;;5.48;54.82;101880.97;4452597;32;33384;-88
2022/01/13 11:03:23;;;;;;;21.58;9.70;;;;;;;5.79;53.51;101872.56;4447499;32;34383;-87
2022/01/13 11:05:59;;;;;;;23.92;10.27;;;;;;;6.00;53.01;101871.00;4462439;32;33789;-88
2022/01/13 11:08:42;;;;;;;21.30;10.32;;;;;;;5.56;54.28;101874.97;4451675;32;32914;-88
2022/01/13 11:11:27;;;;;;;25.67;10.75;;;;;;;5.67;53.66;101867.19;4462635;32;34149;-88
2022/01/13 11:14:07;;;;;;;25.17;10.85;;;;;;;5.79;53.41;101858.53;4456269;32;33478;-87
2022/01/13 11:16:37;;;;;;;24.77;11.15;;;;;;;5.36;54.50;101877.37;4459792;32;33754;-87
2022/01/13 11:19:06;;;;;;;24.65;12.18;;;;;;;5.51;54.16;101865.31;4445208;32;33089;-88
2022/01/13 11:21:33;;;;;;;26.73;12.68;;;;;;;5.33;54.73;101873.84;4459555;32;33527;-88
2022/01/13 11:24:01;;;;;;;22.58;10.50;;;;;;;5.66;54.16;101862.81;4447490;32;33513;-88
2022/01/13 11:26:30;;;;;;;25.10;12.52;;;;;;;5.95;53.03;101863.09;4454345;32;34127;-88
2022/01/13 11:29:00;;;;;;;26.70;12.82;;;;;;;5.78;54.25;101855.03;4447865;32;32762;-88
2022/01/13 11:31:28;;;;;;;23.05;12.60;;;;;;;5.70;53.98;101862.00;4461148;32;33465;-88
2022/01/13 11:33:57;;;;;;;26.77;12.35;;;;;;;5.45;54.18;101854.72;4451357;32;32595;-88
2022/01/13 11:36:26;;;;;;;28.80;12.85;;;;;;;5.38;54.60;101853.81;4448798;32;34119;-88
2022/01/13 11:39:02;;;;;;;27.20;12.07;;;;;;;5.36;54.97;101853.81;4447607;32;32636;-88
2022/01/13 11:41:30;;;;;;;24.40;11.25;;;;;;;5.27;55.18;101851.09;4446438;32;32565;-88
2022/01/13 11:44:17;;;;;;;17.95;8.57;;;;;;;5.83;53.69;101845.47;4437633;32;32830;-88
2022/01/13 11:46:47;;;;;;;22.33;10.13;;;;;;;5.42;55.10;101855.59;4463304;32;34628;-88
2022/01/13 11:49:19;;;;;;;19.05;10.10;;;;;;;5.63;54.52;101850.56;4461947;32;33184;-88
2022/01/13 11:51:56;;;;;;;24.20;9.95;;;;;;;5.35;54.92;101848.53;4446460;32;33683;-88
2022/01/13 11:54:35;;;;;;;24.50;9.30;;;;;;;5.34;55.40;101847.66;4448711;32;32390;-88
2022/01/13 11:57:27;;;;;;;39.60;9.50;;;;;;;5.08;56.05;101833.37;4458943;32;32188;-88
2022/01/13 11:59:55;;;;;;;16.55;8.85;;;;;;;5.75;53.99;101828.84;4449742;32;32753;-88
2022/01/13 12:02:28;;;;;;;18.83;8.95;;;;;;;5.22;55.63;101837.06;4466089;32;33894;-87